Time;durP1;ratioP1;P1;durP2;ratioP2;P2;SDS_P1;SDS_P2;PMS_P1;PMS_P2;Temp;Humidity;BMP_temperature;BMP_pressure;BME280_temperature;BME280_humidity;BME280_pressure;Samples;Min_cycle;Max_cycle;Signal;HPM_P1;HPM_P2
2023/08/20 00:00:16;;;;;;;6.40;2.65;;;24.20;95.00;;;;;;5043263;28;20076;-71
2023/08/20 00:02:43;;;;;;;6.40;2.60;;;24.20;95.00;;;;;;5037255;28;20045;-70
2023/08/20 00:05:09;;;;;;;9.43;2.60;;;24.20;95.10;;;;;;5039535;28;20079;-72
2023/08/20 00:07:35;;;;;;;7.00;2.47;;;24.30;96.50;;;;;;5046453;28;20053;-70
2023/08/20 00:10:04;;;;;;;7.15;2.72;;;24.40;94.90;;;;;;5037854;28;20120;-72
2023/08/20 00:12:30;;;;;;;5.40;2.53;;;24.00;95.00;;;;;;5046385;28;20063;-67
2023/08/20 00:15:05;;;;;;;7.47;2.50;;;24.20;95.10;;;;;;5053353;28;20486;-69
2023/08/20 00:17:39;;;;;;;5.32;2.67;;;24.10;95.00;;;;;;5045177;28;20056;-69
2023/08/20 00:20:15;;;;;;;7.07;2.50;;;24.40;95.20;;;;;;4999233;28;20057;-66
2023/08/20 00:22:42;;;;;;;6.03;2.33;;;24.30;94.80;;;;;;5033062;28;20364;-67
2023/08/20 00:25:08;;;;;;;7.00;2.67;;;24.10;94.80;;;;;;5042495;28;20041;-69
2023/08/20 00:27:34;;;;;;;5.95;2.45;;;24.00;94.60;;;;;;5037642;28;20060;-68
2023/08/20 00:30:00;;;;;;;6.10;2.45;;;24.10;96.30;;;;;;5044094;28;20066;-72
2023/08/20 00:32:26;;;;;;;6.55;2.67;;;24.20;94.80;;;;;;5036341;28;20044;-70
2023/08/20 00:34:51;;;;;;;5.70;2.47;;;23.80;94.80;;;;;;5041485;28;20045;-70
2023/08/20 00:37:17;;;;;;;7.70;2.63;;;24.10;94.90;;;;;;5048586;28;20048;-62
2023/08/20 00:39:43;;;;;;;6.00;2.72;;;24.10;95.10;;;;;;5047649;28;20033;-72
2023/08/20 00:42:09;;;;;;;4.57;2.13;;;23.90;94.70;;;;;;5049775;28;20040;-67
2023/08/20 00:44:34;;;;;;;7.20;2.42;;;24.00;94.80;;;;;;5051802;28;20104;-67
2023/08/20 00:47:02;;;;;;;5.60;2.30;;;23.90;94.70;;;;;;5055513;28;20079;-70
2023/08/20 00:49:28;;;;;;;6.18;2.83;;;23.90;94.70;;;;;;5055283;28;20045;-69
2023/08/20 00:51:54;;;;;;;8.55;2.50;;;23.90;94.70;;;;;;5049854;28;20056;-64
2023/08/20 00:54:20;;;;;;;5.63;2.20;;;24.00;94.70;;;;;;5052916;28;20033;-67
2023/08/20 00:56:47;;;;;;;5.75;2.38;;;24.00;94.70;;;;;;5050050;28;20052;-68
2023/08/20 00:59:13;;;;;;;6.13;2.60;;;24.10;94.70;;;;;;5053185;28;20041;-68
2023/08/20 01:01:38;;;;;;;5.10;2.25;;;23.80;94.50;;;;;;5063285;28;20391;-70
2023/08/20 01:04:04;;;;;;;6.75;2.65;;;24.30;94.70;;;;;;5031580;28;20103;-67
2023/08/20 01:06:30;;;;;;;7.45;2.42;;;23.90;94.50;;;;;;5036812;28;20045;-72
2023/08/20 01:09:04;;;;;;;4.78;2.15;;;23.70;94.50;;;;;;5032679;28;20133;-68
2023/08/20 01:11:33;;;;;;;6.00;2.60;;;23.90;94.70;;;;;;5035583;28;20204;-70
2023/08/20 01:14:00;;;;;;;6.55;2.50;;;23.70;95.80;;;;;;5028999;28;20402;-64
2023/08/20 01:16:26;;;;;;;6.38;2.35;;;23.80;94.60;;;;;;5048399;28;20057;-71
2023/08/20 01:18:53;;;;;;;7.07;2.40;;;23.80;94.50;;;;;;5044745;28;20055;-70
2023/08/20 01:21:38;;;;;;;6.63;2.53;;;24.00;94.50;;;;;;5025383;28;20049;-64
2023/08/20 01:24:36;;;;;;;6.18;2.65;;;23.80;94.70;;;;;;5030203;28;20124;-65
2023/08/20 01:27:17;;;;;;;6.38;2.33;;;23.90;94.00;;;;;;5031283;28;20049;-66
2023/08/20 01:29:43;;;;;;;5.57;2.80;;;23.90;93.90;;;;;;5014667;28;20124;-69
2023/08/20 01:32:09;;;;;;;6.80;2.40;;;23.80;94.30;;;;;;5032667;28;20550;-68
2023/08/20 01:34:34;;;;;;;6.60;2.60;;;24.00;94.40;;;;;;5013570;28;20048;-66
2023/08/20 01:37:00;;;;;;;7.40;2.38;;;24.10;94.40;;;;;;5017072;28;20041;-71
2023/08/20 01:39:26;;;;;;;4.80;2.30;;;23.90;94.30;;;;;;5045937;28;20049;-64
2023/08/20 01:41:51;;;;;;;4.85;2.40;;;23.90;94.30;;;;;;5046232;28;20478;-65
2023/08/20 01:44:17;;;;;;;4.70;2.25;;;24.00;94.30;;;;;;5027161;28;20049;-69
2023/08/20 01:46:43;;;;;;;5.20;2.60;;;24.00;94.30;;;;;;5033871;28;20048;-66
2023/08/20 01:49:09;;;;;;;8.15;2.40;;;23.80;94.20;;;;;;5023398;28;20141;-66
2023/08/20 01:51:36;;;;;;;5.18;2.40;;;24.10;94.30;;;;;;5034987;28;20381;-68
2023/08/20 01:54:02;;;;;;;5.22;2.25;;;23.60;94.20;;;;;;5044185;28;20096;-66
2023/08/20 01:56:28;;;;;;;7.18;2.65;;;24.00;94.20;;;;;;5024542;28;20088;-68
2023/08/20 01:58:53;;;;;;;5.95;2.58;;;23.80;94.20;;;;;;5045978;28;20135;-64
2023/08/20 02:01:19;;;;;;;6.05;2.58;;;23.90;94.20;;;;;;5016033;28;20049;-68
2023/08/20 02:03:45;;;;;;;5.75;2.60;;;23.80;94.20;;;;;;5037822;28;20080;-65
2023/08/20 02:06:11;;;;;;;5.57;2.28;;;23.90;94.30;;;;;;5029135;28;20045;-64
2023/08/20 02:08:36;;;;;;;7.45;2.45;;;24.10;94.20;;;;;;5048769;28;20454;-65
2023/08/20 02:11:03;;;;;;;5.22;2.45;;;23.90;94.20;;;;;;5050377;28;20044;-66
2023/08/20 02:13:28;;;;;;;6.70;2.83;;;23.80;95.70;;;;;;5044148;28;20041;-66
2023/08/20 02:15:59;;;;;;;7.07;2.78;;;23.80;94.20;;;;;;5031547;28;20045;-64
2023/08/20 02:18:25;;;;;;;5.90;2.40;;;23.70;95.30;;;;;;5050486;28;20092;-66
2023/08/20 02:20:50;;;;;;;5.15;2.45;;;23.70;94.10;;;;;;5034979;28;20073;-64
2023/08/20 02:23:16;;;;;;;6.78;2.58;;;23.70;94.10;;;;;;5048547;28;20042;-64
2023/08/20 02:25:43;;;;;;;4.55;2.22;;;23.80;95.70;;;;;;5049115;28;20483;-68
2023/08/20 02:28:09;;;;;;;6.03;2.45;;;24.00;94.20;;;;;;5048311;28;20036;-67
2023/08/20 02:30:42;;;;;;;5.65;2.20;;;23.70;94.00;;;;;;5024859;28;20056;-65
2023/08/20 02:33:09;;;;;;;5.45;2.47;;;23.70;95.40;;;;;;5027933;28;20056;-65
2023/08/20 02:35:38;;;;;;;6.82;2.67;;;23.70;94.10;;;;;;5016479;28;20128;-67
2023/08/20 02:38:05;;;;;;;6.90;2.40;;;23.80;95.50;;;;;;5044201;28;20045;-63
2023/08/20 02:40:31;;;;;;;7.15;2.50;;;23.70;94.10;;;;;;5022221;28;20403;-66
2023/08/20 02:42:56;;;;;;;7.03;2.50;;;23.90;94.10;;;;;;5021024;28;20048;-65
2023/08/20 02:45:22;;;;;;;6.57;2.40;;;23.80;94.10;;;;;;5050635;28;20461;-63
2023/08/20 02:47:48;;;;;;;5.75;2.38;;;23.70;94.10;;;;;;5007644;28;20104;-66
2023/08/20 02:50:14;;;;;;;6.32;2.47;;;23.70;94.10;;;;;;5004585;28;20048;-63
2023/08/20 02:52:42;;;;;;;6.05;2.53;;;23.60;94.00;;;;;;5050044;28;20061;-63
2023/08/20 02:55:08;;;;;;;6.00;2.65;;;23.80;94.20;;;;;;5021029;28;20048;-63
2023/08/20 02:57:33;;;;;;;7.53;2.50;;;23.80;94.10;;;;;;5019727;28;20505;-64
2023/08/20 02:59:59;;;;;;;5.32;2.33;;;23.80;94.10;;;;;;5038054;28;20109;-71
2023/08/20 03:02:25;;;;;;;7.07;2.80;;;23.70;94.00;;;;;;5037558;28;20133;-76
2023/08/20 03:04:50;;;;;;;5.93;2.47;;;23.60;94.00;;;;;;5039435;28;20079;-69
2023/08/20 03:07:16;;;;;;;10.35;2.58;;;23.70;94.00;;;;;;5062313;28;20041;-65
2023/08/20 03:09:42;;;;;;;6.15;2.40;;;23.60;94.00;;;;;;5054040;28;20044;-70
2023/08/20 03:12:08;;;;;;;8.80;2.92;;;23.80;94.00;;;;;;5054752;28;20363;-73
2023/08/20 03:14:33;;;;;;;9.07;2.40;;;23.70;94.00;;;;;;5053634;28;20056;-67
2023/08/20 03:16:59;;;;;;;6.47;2.60;;;23.80;94.10;;;;;;5053276;28;20044;-72
2023/08/20 03:19:25;;;;;;;5.50;2.50;;;23.80;94.10;;;;;;5029893;28;20050;-69
2023/08/20 03:21:50;;;;;;;6.78;2.70;;;23.70;94.10;;;;;;5018641;28;20128;-67
2023/08/20 03:24:16;;;;;;;8.27;3.13;;;23.70;94.10;;;;;;5048863;28;20052;-68
2023/08/20 03:26:42;;;;;;;9.25;3.30;;;23.90;94.00;;;;;;5056720;28;20529;-67
2023/08/20 03:29:08;;;;;;;6.95;2.90;;;23.70;94.00;;;;;;5044133;28;20166;-71
2023/08/20 03:31:33;;;;;;;7.82;2.90;;;23.40;93.90;;;;;;5042775;28;20052;-77
2023/08/20 03:34:00;;;;;;;7.55;2.83;;;23.70;93.80;;;;;;5019630;28;20564;-69
2023/08/20 03:36:25;;;;;;;7.00;3.30;;;23.70;94.00;;;;;;5031353;28;20558;-72
2023/08/20 03:38:51;;;;;;;8.23;2.90;;;23.50;95.20;;;;;;5047174;28;20125;-67
2023/08/20 03:41:17;;;;;;;6.90;3.30;;;23.60;93.90;;;;;;5042737;28;20043;-77
2023/08/20 03:43:43;;;;;;;5.65;2.92;;;23.70;93.90;;;;;;5049401;28;20044;-67
2023/08/20 03:46:08;;;;;;;6.13;3.10;;;23.70;93.90;;;;;;5044102;28;20407;-72
2023/08/20 03:48:34;;;;;;;5.63;3.00;;;23.60;93.80;;;;;;5026371;28;20093;-73
2023/08/20 03:51:00;;;;;;;7.68;2.75;;;23.50;93.70;;;;;;5037113;28;20026;-70
2023/08/20 03:53:25;;;;;;;6.22;3.10;;;23.70;93.80;;;;;;5010357;28;20045;-70
2023/08/20 03:55:51;;;;;;;5.68;2.92;;;23.60;93.80;;;;;;5024485;28;20041;-67
2023/08/20 03:58:17;;;;;;;8.32;2.90;;;23.50;95.10;;;;;;5032636;28;20395;-68
2023/08/20 04:00:43;;;;;;;6.65;2.90;;;23.50;93.70;;;;;;5027181;28;20056;-73
2023/08/20 04:03:09;;;;;;;6.75;2.90;;;23.40;93.60;;;;;;5026958;28;20038;-70
2023/08/20 04:05:38;;;;;;;6.15;2.63;;;23.60;93.70;;;;;;5045339;28;20037;-70
2023/08/20 04:08:04;;;;;;;7.03;2.72;;;23.70;93.80;;;;;;5005786;28;20053;-71
2023/08/20 04:10:31;;;;;;;6.03;2.70;;;23.50;93.80;;;;;;5044096;28;20116;-70
2023/08/20 04:12:56;;;;;;;7.00;2.90;;;23.40;93.70;;;;;;5024618;28;20057;-68
2023/08/20 04:15:22;;;;;;;6.28;2.65;;;23.50;93.70;;;;;;5015707;28;20064;-70
2023/08/20 04:17:48;;;;;;;8.27;3.15;;;23.70;93.70;;;;;;5042716;28;20104;-68
2023/08/20 04:20:15;;;;;;;7.15;2.97;;;23.40;93.70;;;;;;5020105;28;20433;-64
2023/08/20 04:22:40;;;;;;;5.75;3.10;;;23.20;95.10;;;;;;5018457;28;20037;-65
2023/08/20 04:25:07;;;;;;;7.07;2.95;;;23.60;93.70;;;;;;5004325;28;20052;-68
2023/08/20 04:27:33;;;;;;;5.40;2.72;;;23.70;93.60;;;;;;5004149;28;20041;-65
2023/08/20 04:29:59;;;;;;;6.68;2.80;;;23.70;95.00;;;;;;5020235;28;20045;-66
2023/08/20 04:32:24;;;;;;;7.43;3.17;;;23.50;94.90;;;;;;5027044;28;20418;-67
2023/08/20 04:34:52;;;;;;;5.63;2.78;;;23.40;93.50;;;;;;5025918;28;20048;-66
2023/08/20 04:37:19;;;;;;;6.32;2.90;;;23.50;93.50;;;;;;5025799;28;20044;-69
2023/08/20 04:39:45;;;;;;;7.53;3.08;;;23.40;94.70;;;;;;5010932;28;20114;-65
2023/08/20 04:42:10;;;;;;;6.07;2.90;;;23.50;93.40;;;;;;5041195;28;20439;-68
2023/08/20 04:44:36;;;;;;;6.68;3.33;;;23.70;93.50;;;;;;5056962;28;20131;-65
2023/08/20 04:47:02;;;;;;;6.22;2.83;;;23.50;93.30;;;;;;5040549;28;20068;-65
2023/08/20 04:49:29;;;;;;;5.78;3.00;;;23.40;93.20;;;;;;5045829;28;20048;-64
2023/08/20 04:51:55;;;;;;;7.82;3.10;;;23.50;93.30;;;;;;5050804;28;20049;-66
2023/08/20 04:54:21;;;;;;;6.78;2.83;;;23.50;93.20;;;;;;5054064;28;20041;-70
2023/08/20 04:56:47;;;;;;;5.72;2.75;;;23.60;93.20;;;;;;5061935;28;20048;-68
2023/08/20 04:59:13;;;;;;;7.38;2.80;;;23.70;93.20;;;;;;5041866;28;20059;-66
2023/08/20 05:01:39;;;;;;;5.68;2.75;;;23.60;93.20;;;;;;5059956;28;20056;-68
2023/08/20 05:04:05;;;;;;;4.45;2.53;;;23.70;93.10;;;;;;5060502;28;20047;-66
2023/08/20 05:06:31;;;;;;;6.30;2.63;;;23.70;93.20;;;;;;5043506;28;20041;-64
2023/08/20 05:08:57;;;;;;;7.35;2.75;;;24.00;93.20;;;;;;5063805;28;20402;-71
2023/08/20 05:11:22;;;;;;;9.13;2.80;;;23.90;93.00;;;;;;5019256;28;20033;-71
2023/08/20 05:13:49;;;;;;;5.55;2.70;;;24.00;93.00;;;;;;5039373;28;20061;-68
2023/08/20 05:16:15;;;;;;;5.30;2.67;;;23.90;93.00;;;;;;5043178;28;20067;-65
2023/08/20 05:18:41;;;;;;;7.45;2.58;;;24.10;92.90;;;;;;5043305;28;20040;-65
2023/08/20 05:21:07;;;;;;;6.95;3.10;;;24.00;93.10;;;;;;5047751;28;20049;-62
2023/08/20 05:23:33;;;;;;;6.50;2.95;;;24.00;92.70;;;;;;5027741;28;20041;-70
2023/08/20 05:25:59;;;;;;;6.22;2.70;;;24.10;92.60;;;;;;5047663;28;20041;-67
2023/08/20 05:28:25;;;;;;;5.78;2.70;;;24.00;92.50;;;;;;5052315;28;20119;-64
2023/08/20 05:30:57;;;;;;;5.25;2.38;;;24.20;92.50;;;;;;5027432;28;20509;-63
2023/08/20 05:33:23;;;;;;;5.87;2.20;;;24.40;92.50;;;;;;5029472;28;20443;-64
2023/08/20 05:35:49;;;;;;;6.38;2.50;;;24.40;92.40;;;;;;5029357;28;20358;-63
2023/08/20 05:38:15;;;;;;;6.45;2.92;;;24.40;92.20;;;;;;5036807;28;20084;-64
2023/08/20 05:40:41;;;;;;;7.93;2.53;;;24.50;92.20;;;;;;5011890;28;20081;-64
2023/08/20 05:43:07;;;;;;;7.97;2.72;;;24.50;92.10;;;;;;5029122;28;20076;-63
2023/08/20 05:45:32;;;;;;;5.00;2.78;;;24.50;91.90;;;;;;5032025;28;20052;-67
2023/08/20 05:47:58;;;;;;;6.60;2.47;;;24.80;93.10;;;;;;5032465;28;20045;-63
2023/08/20 05:50:24;;;;;;;5.15;2.33;;;24.60;91.70;;;;;;5047653;28;20110;-68
2023/08/20 05:52:49;;;;;;;7.78;2.72;;;24.70;91.60;;;;;;5029476;28;20048;-64
2023/08/20 05:55:15;;;;;;;5.15;2.58;;;24.80;91.40;;;;;;5031401;28;20131;-67
2023/08/20 05:57:42;;;;;;;5.20;2.47;;;25.10;91.40;;;;;;5033944;28;20048;-64
2023/08/20 06:00:09;;;;;;;6.32;2.45;;;25.10;91.30;;;;;;5031410;28;20064;-64
2023/08/20 06:02:35;;;;;;;7.78;2.45;;;25.20;91.20;;;;;;5018661;28;20131;-65
2023/08/20 06:05:01;;;;;;;5.47;2.42;;;25.30;91.10;;;;;;5034446;28;20459;-65
2023/08/20 06:07:27;;;;;;;4.90;2.35;;;25.40;91.00;;;;;;5035576;28;20060;-66
2023/08/20 06:09:52;;;;;;;5.80;2.78;;;25.30;90.80;;;;;;5036680;28;20076;-67
2023/08/20 06:12:18;;;;;;;5.78;2.95;;;25.40;90.70;;;;;;5046236;28;20156;-66
2023/08/20 06:14:44;;;;;;;5.10;2.00;;;25.60;90.70;;;;;;5035434;28;20053;-65
2023/08/20 06:17:10;;;;;;;6.15;2.60;;;25.70;90.50;;;;;;5021254;28;20375;-64
2023/08/20 06:19:36;;;;;;;6.10;2.40;;;25.80;90.60;;;;;;5036015;28;20048;-64
2023/08/20 06:22:02;;;;;;;6.18;2.42;;;25.80;90.40;;;;;;5035790;28;20059;-66
2023/08/20 06:24:28;;;;;;;4.35;2.10;;;25.90;90.30;;;;;;5033171;28;20040;-67
2023/08/20 06:26:54;;;;;;;7.55;2.50;;;26.10;90.30;;;;;;5036360;28;20056;-65
2023/08/20 06:29:21;;;;;;;6.43;2.58;;;26.00;90.10;;;;;;5034707;28;20143;-64
2023/08/20 06:31:48;;;;;;;8.40;2.83;;;26.00;89.80;;;;;;5035889;28;20045;-64
2023/08/20 06:34:14;;;;;;;6.68;2.83;;;26.00;89.90;;;;;;5046558;28;20053;-64
2023/08/20 06:36:39;;;;;;;6.72;2.67;;;26.00;89.50;;;;;;5031656;28;20048;-68
2023/08/20 06:39:05;;;;;;;6.28;2.72;;;26.10;89.30;;;;;;5018789;28;20048;-65
2023/08/20 06:41:31;;;;;;;6.22;2.55;;;26.10;89.20;;;;;;5053351;28;20198;-62
2023/08/20 06:43:57;;;;;;;6.88;2.72;;;26.50;89.30;;;;;;5016989;28;20052;-66
2023/08/20 06:46:23;;;;;;;5.78;2.30;;;26.60;89.20;;;;;;5044028;28;20130;-64
2023/08/20 06:48:49;;;;;;;6.68;2.55;;;26.40;88.80;;;;;;5058000;28;20039;-64
2023/08/20 06:51:17;;;;;;;6.57;2.30;;;26.70;88.80;;;;;;5059489;28;20402;-70
2023/08/20 06:53:43;;;;;;;6.43;2.67;;;26.40;87.60;;;;;;5039034;28;20565;-63
2023/08/20 06:56:09;;;;;;;7.82;2.80;;;26.40;88.00;;;;;;5062591;28;20036;-62
2023/08/20 06:58:35;;;;;;;6.63;2.33;;;26.70;88.10;;;;;;5062992;28;20075;-63
2023/08/20 07:01:07;;;;;;;6.55;2.30;;;26.50;87.70;;;;;;5038716;28;20051;-62
2023/08/20 07:03:42;;;;;;;7.13;2.65;;;26.60;87.80;;;;;;5035210;28;20110;-65
2023/08/20 07:06:11;;;;;;;7.43;3.17;;;26.80;88.00;;;;;;5013407;28;20045;-72
2023/08/20 07:08:39;;;;;;;7.25;3.13;;;26.70;87.10;;;;;;5021329;28;20119;-61
2023/08/20 07:11:05;;;;;;;13.38;4.00;;;26.80;86.90;;;;;;5018989;28;20052;-68
2023/08/20 07:13:31;;;;;;;9.77;4.47;;;27.00;86.40;;;;;;5035311;28;20049;-63
2023/08/20 07:15:56;;;;;;;9.63;4.28;;;26.70;85.80;;;;;;5016534;28;20138;-68
2023/08/20 07:18:22;;;;;;;10.65;4.13;;;26.60;85.70;;;;;;5051205;28;20048;-74
2023/08/20 07:20:49;;;;;;;9.80;4.30;;;26.70;85.60;;;;;;5053525;28;20390;-71
2023/08/20 07:23:15;;;;;;;9.85;3.65;;;26.50;85.80;;;;;;5017940;28;20175;-70
2023/08/20 07:25:41;;;;;;;12.90;4.15;;;26.30;85.30;;;;;;5051049;28;20041;-70
2023/08/20 07:28:08;;;;;;;10.52;3.70;;;26.70;85.60;;;;;;5035830;28;20040;-63
2023/08/20 07:30:34;;;;;;;11.88;3.80;;;26.70;85.70;;;;;;5028769;28;20147;-73
2023/08/20 07:33:00;;;;;;;10.15;3.67;;;26.70;85.80;;;;;;5036134;28;20041;-62
2023/08/20 07:35:26;;;;;;;12.68;3.50;;;26.60;85.50;;;;;;5034098;28;20120;-62
2023/08/20 07:37:52;;;;;;;9.15;3.15;;;26.80;85.60;;;;;;5052105;28;20132;-62
2023/08/20 07:40:18;;;;;;;10.70;3.20;;;27.00;85.50;;;;;;5019814;28;20134;-64
2023/08/20 07:42:43;;;;;;;9.60;3.33;;;26.90;85.40;;;;;;5036715;28;20053;-64
2023/08/20 07:45:09;;;;;;;10.48;3.08;;;26.90;85.20;;;;;;5056309;28;20115;-61
2023/08/20 07:47:36;;;;;;;10.20;3.13;;;26.60;84.40;;;;;;5046795;28;20086;-63
2023/08/20 07:50:02;;;;;;;9.57;3.33;;;26.80;85.20;;;;;;5052084;28;20045;-67
2023/08/20 07:52:28;;;;;;;9.52;3.08;;;27.00;85.00;;;;;;5022957;28;20052;-62
2023/08/20 07:54:54;;;;;;;11.60;3.00;;;27.00;84.80;;;;;;5050734;28;20136;-61
2023/08/20 07:57:20;;;;;;;12.50;3.33;;;26.90;84.60;;;;;;5032734;28;20088;-61
2023/08/20 07:59:45;;;;;;;10.52;2.95;;;26.90;84.70;;;;;;5034150;28;20541;-64
2023/08/20 08:02:11;;;;;;;8.13;2.55;;;27.20;84.70;;;;;;5051932;28;20090;-66
2023/08/20 08:04:37;;;;;;;8.77;2.92;;;26.80;84.50;;;;;;5052316;28;20040;-62
2023/08/20 08:07:03;;;;;;;10.00;2.67;;;27.10;84.60;;;;;;5028053;28;20068;-63
2023/08/20 08:09:30;;;;;;;9.98;3.22;;;27.00;84.20;;;;;;5030992;28;20060;-63
2023/08/20 08:11:56;;;;;;;9.20;3.08;;;27.00;84.40;;;;;;5030585;28;20047;-62
2023/08/20 08:14:22;;;;;;;7.93;3.33;;;27.30;84.40;;;;;;5030366;28;20049;-64
2023/08/20 08:16:48;;;;;;;11.85;3.50;;;27.20;83.90;;;;;;5049586;28;20453;-61
2023/08/20 08:19:14;;;;;;;10.60;2.97;;;27.10;83.90;;;;;;5049451;28;20049;-62
2023/08/20 08:21:41;;;;;;;11.35;3.20;;;27.10;83.50;;;;;;5031982;28;20409;-66
2023/08/20 08:24:07;;;;;;;8.48;2.95;;;27.10;83.40;;;;;;5024934;28;20115;-62
2023/08/20 08:26:34;;;;;;;8.65;2.58;;;27.50;83.20;;;;;;5034981;28;20048;-67
2023/08/20 08:28:59;;;;;;;10.98;2.88;;;27.60;83.40;;;;;;5018127;28;20072;-74
2023/08/20 08:31:26;;;;;;;11.40;3.25;;;27.50;82.80;;;;;;5051214;28;20057;-63
2023/08/20 08:33:51;;;;;;;10.40;3.00;;;27.40;82.60;;;;;;4999526;28;20178;-65
2023/08/20 08:36:17;;;;;;;7.60;2.67;;;27.10;82.70;;;;;;5032391;28;20067;-72
2023/08/20 08:38:44;;;;;;;8.50;2.85;;;27.20;82.40;;;;;;5030138;28;20560;-66
2023/08/20 08:41:11;;;;;;;10.68;2.95;;;27.30;82.50;;;;;;5027700;28;20048;-62
2023/08/20 08:43:40;;;;;;;8.23;2.55;;;27.20;82.30;;;;;;5032812;28;20433;-63
2023/08/20 08:46:07;;;;;;;11.50;2.90;;;27.20;82.10;;;;;;5047767;28;20064;-65
2023/08/20 08:48:35;;;;;;;9.52;2.25;;;27.40;82.30;;;;;;5049845;28;20052;-63
2023/08/20 08:51:02;;;;;;;16.50;3.10;;;27.40;82.00;;;;;;5029679;28;20053;-65
2023/08/20 08:53:28;;;;;;;10.10;2.47;;;27.40;81.60;;;;;;5047840;28;20045;-71
2023/08/20 08:55:53;;;;;;;12.63;2.95;;;27.30;81.40;;;;;;5019906;28;20033;-69
2023/08/20 08:58:19;;;;;;;9.38;2.75;;;27.40;81.60;;;;;;5037848;28;20495;-67
2023/08/20 09:00:45;;;;;;;9.70;2.78;;;27.30;81.60;;;;;;5048123;28;20055;-63
2023/08/20 09:03:11;;;;;;;8.05;2.53;;;27.50;81.60;;;;;;5050372;28;20040;-62
2023/08/20 09:05:49;;;;;;;7.10;2.10;;;27.20;81.40;;;;;;5051628;28;20044;-63
2023/08/20 09:08:22;;;;;;;9.48;2.40;;;27.30;81.70;;;;;;5046894;28;20056;-64
2023/08/20 09:10:51;;;;;;;7.35;2.40;;;27.10;81.50;;;;;;5042994;28;20044;-67
2023/08/20 09:13:17;;;;;;;8.68;2.10;;;27.50;81.70;;;;;;5038144;28;20045;-71
2023/08/20 09:15:44;;;;;;;9.73;2.60;;;27.20;81.10;;;;;;5040619;28;20105;-67
2023/08/20 09:18:10;;;;;;;7.38;2.28;;;27.20;81.30;;;;;;5041556;28;20178;-68
2023/08/20 09:20:37;;;;;;;6.97;2.20;;;27.00;81.00;;;;;;5042590;28;20119;-66
2023/08/20 09:23:03;;;;;;;7.55;2.13;;;27.20;81.20;;;;;;5043082;28;20434;-66
2023/08/20 09:25:29;;;;;;;8.55;2.30;;;27.20;80.90;;;;;;5045232;28;20061;-68
2023/08/20 09:27:55;;;;;;;7.60;1.90;;;27.50;80.60;;;;;;5042850;28;20430;-63
2023/08/20 09:30:21;;;;;;;8.20;2.17;;;27.40;80.20;;;;;;5027364;28;20130;-62
2023/08/20 09:33:04;;;;;;;7.05;2.35;;;27.50;79.90;;;;;;5024986;28;20517;-72
2023/08/20 09:35:30;;;;;;;5.95;1.73;;;27.20;78.30;;;;;;5013369;28;20584;-70
2023/08/20 09:38:00;;;;;;;6.38;2.00;;;27.40;79.60;;;;;;5025394;28;20071;-64
2023/08/20 09:40:26;;;;;;;7.47;2.08;;;27.60;79.40;;;;;;5046530;28;20403;-65
2023/08/20 09:42:53;;;;;;;6.82;2.28;;;27.70;79.30;;;;;;5026674;28;20056;-64
2023/08/20 09:45:20;;;;;;;7.00;1.85;;;27.80;79.60;;;;;;5011394;28;20056;-64
2023/08/20 09:47:45;;;;;;;8.30;2.42;;;27.80;79.60;;;;;;5046257;28;20451;-68
2023/08/20 09:50:11;;;;;;;7.05;2.00;;;27.70;79.30;;;;;;5036656;28;20128;-63
2023/08/20 09:52:44;;;;;;;6.30;2.08;;;27.60;79.20;;;;;;5021400;28;20487;-64
2023/08/20 09:55:13;;;;;;;8.90;1.95;;;27.50;79.40;;;;;;5028517;28;20041;-64
2023/08/20 09:57:39;;;;;;;7.68;2.05;;;27.30;79.20;;;;;;5009413;28;20049;-64
2023/08/20 10:00:09;;;;;;;9.90;2.00;;;27.80;79.40;;;;;;5016053;28;20068;-63
2023/08/20 10:02:35;;;;;;;6.75;1.77;;;27.60;78.80;;;;;;5048280;28;20491;-63
2023/08/20 10:05:03;;;;;;;6.88;1.90;;;27.90;79.10;;;;;;5014648;28;20045;-62
2023/08/20 10:07:32;;;;;;;7.07;1.90;;;27.70;79.30;;;;;;5031330;28;20045;-70
2023/08/20 10:10:02;;;;;;;6.90;2.03;;;27.80;78.60;;;;;;5018453;28;20048;-63
2023/08/20 10:12:28;;;;;;;7.53;2.25;;;27.80;79.30;;;;;;5019334;28;20214;-66
2023/08/20 10:14:57;;;;;;;6.75;2.10;;;27.80;78.90;;;;;;5020770;28;20049;-65
2023/08/20 10:17:28;;;;;;;6.47;1.80;;;27.60;78.90;;;;;;5035771;28;20053;-64
2023/08/20 10:19:54;;;;;;;5.60;1.90;;;27.60;78.90;;;;;;5053316;28;20513;-65
2023/08/20 10:22:20;;;;;;;5.38;1.75;;;27.60;79.10;;;;;;5017007;28;20049;-62
2023/08/20 10:24:53;;;;;;;5.43;1.88;;;25.70;77.40;;;;;;5049145;28;20045;-66
2023/08/20 10:27:26;;;;;;;5.35;1.90;;;27.40;78.90;;;;;;5018967;28;20495;-64
2023/08/20 10:29:55;;;;;;;6.95;2.28;;;27.70;79.20;;;;;;5035484;28;20377;-63
2023/08/20 10:32:41;;;;;;;6.60;1.90;;;27.70;78.80;;;;;;5018651;28;20055;-63
2023/08/20 10:35:08;;;;;;;6.22;1.80;;;27.60;79.30;;;;;;5026603;28;20052;-68
2023/08/20 10:37:36;;;;;;;5.65;1.77;;;27.70;79.00;;;;;;5053470;28;20103;-65
2023/08/20 10:40:03;;;;;;;5.20;1.73;;;27.90;79.10;;;;;;5033103;28;20041;-64
2023/08/20 10:42:29;;;;;;;6.72;2.22;;;27.60;78.70;;;;;;5054201;28;20048;-66
2023/08/20 10:45:05;;;;;;;6.38;1.70;;;27.50;78.40;;;;;;5033735;28;20425;-69
2023/08/20 10:47:44;;;;;;;5.47;1.67;;;27.70;77.80;;;;;;5051214;28;20045;-65
2023/08/20 10:50:15;;;;;;;6.28;2.10;;;27.80;79.10;;;;;;5034710;28;20045;-64
2023/08/20 10:52:41;;;;;;;6.25;2.35;;;27.50;78.70;;;;;;5019878;28;20167;-75
2023/08/20 10:55:11;;;;;;;6.35;1.90;;;27.70;78.70;;;;;;5049841;28;20045;-65
2023/08/20 10:57:37;;;;;;;7.13;2.10;;;27.40;78.80;;;;;;5045668;28;20048;-64
2023/08/20 11:00:14;;;;;;;5.72;1.95;;;27.70;78.10;;;;;;5047425;28;20048;-62
2023/08/20 11:02:40;;;;;;;4.72;1.67;;;27.60;78.10;;;;;;5043931;28;20059;-64
2023/08/20 11:05:17;;;;;;;6.10;1.83;;;27.30;78.10;;;;;;5033444;28;20211;-63
2023/08/20 11:07:47;;;;;;;7.55;2.33;;;27.50;78.00;;;;;;5026525;28;20535;-63
2023/08/20 11:10:16;;;;;;;7.57;2.03;;;27.50;76.60;;;;;;5045639;28;20061;-74
2023/08/20 11:12:43;;;;;;;6.88;1.92;;;27.50;78.10;;;;;;5033057;28;20060;-76
2023/08/20 11:15:10;;;;;;;6.15;2.20;;;27.60;78.30;;;;;;5050441;28;20459;-73
2023/08/20 11:17:45;;;;;;;6.25;1.80;;;27.60;78.10;;;;;;5029694;28;20044;-68
2023/08/20 11:20:12;;;;;;;5.00;1.90;;;27.50;78.00;;;;;;5048931;28;20077;-64
2023/08/20 11:22:39;;;;;;;6.20;2.03;;;27.70;78.10;;;;;;5030823;28;20545;-68
2023/08/20 11:25:05;;;;;;;5.63;1.83;;;27.70;77.80;;;;;;5051080;28;20060;-64
2023/08/20 11:27:31;;;;;;;9.30;1.90;;;27.80;77.40;;;;;;5029309;28;20107;-65
2023/08/20 11:29:58;;;;;;;5.03;1.80;;;27.60;77.30;;;;;;5049312;28;20065;-62
2023/08/20 11:32:24;;;;;;;6.60;1.42;;;27.60;77.10;;;;;;5020334;28;20048;-63
2023/08/20 11:34:50;;;;;;;6.13;2.00;;;27.60;77.30;;;;;;5009651;28;20049;-68
2023/08/20 11:37:22;;;;;;;4.97;1.80;;;27.90;77.60;;;;;;5033403;28;20368;-66
2023/08/20 11:39:51;;;;;;;6.53;2.00;;;27.50;77.90;;;;;;5035143;28;20474;-68
2023/08/20 11:42:16;;;;;;;7.20;2.00;;;27.80;78.30;;;;;;5054438;28;20041;-72
2023/08/20 11:44:44;;;;;;;8.00;2.10;;;27.80;78.40;;;;;;5030597;28;20111;-71
2023/08/20 11:47:14;;;;;;;6.32;1.75;;;27.60;78.70;;;;;;5022597;28;20111;-67
2023/08/20 11:49:40;;;;;;;6.20;1.65;;;27.70;79.30;;;;;;5058127;28;20048;-66
2023/08/20 11:52:06;;;;;;;4.13;1.70;;;27.60;78.80;;;;;;5036492;28;20045;-66
2023/08/20 11:54:32;;;;;;;4.50;1.60;;;27.50;79.00;;;;;;5036148;28;20045;-62
2023/08/20 11:57:05;;;;;;;5.13;1.50;;;27.60;79.80;;;;;;5036221;28;20048;-64
2023/08/20 11:59:31;;;;;;;6.45;1.85;;;27.30;78.10;;;;;;5001487;28;20061;-61
2023/08/20 12:02:03;;;;;;;6.57;1.98;;;27.60;79.50;;;;;;5033784;28;20048;-62
2023/08/20 12:04:30;;;;;;;3.42;1.70;;;27.60;78.40;;;;;;5025017;28;20057;-63
2023/08/20 12:07:08;;;;;;;5.10;1.60;;;27.60;79.90;;;;;;5016115;28;20121;-61
2023/08/20 12:09:34;;;;;;;5.57;1.80;;;27.40;80.50;;;;;;5040798;28;20464;-62
2023/08/20 12:12:01;;;;;;;3.22;1.30;;;27.70;80.10;;;;;;5073414;28;20115;-62
2023/08/20 12:14:26;;;;;;;5.03;1.40;;;27.40;80.10;;;;;;5024597;28;20052;-65
2023/08/20 12:16:54;;;;;;;3.78;1.55;;;27.50;80.20;;;;;;5074006;28;20048;-64
2023/08/20 12:19:20;;;;;;;4.30;1.60;;;27.50;80.50;;;;;;5030413;28;20480;-70
2023/08/20 12:21:45;;;;;;;5.30;1.60;;;27.70;80.50;;;;;;5030030;28;20056;-70
2023/08/20 12:24:11;;;;;;;5.35;1.70;;;27.40;80.40;;;;;;5059237;28;20125;-68
2023/08/20 12:26:38;;;;;;;4.60;1.60;;;27.50;80.60;;;;;;5054637;28;20033;-61
2023/08/20 12:29:04;;;;;;;3.63;1.40;;;27.40;80.70;;;;;;5068593;28;20065;-67
2023/08/20 12:31:29;;;;;;;4.65;1.60;;;27.90;80.60;;;;;;5062304;28;20113;-64
2023/08/20 12:33:55;;;;;;;4.53;1.60;;;27.60;80.60;;;;;;5041710;28;20049;-68
2023/08/20 12:36:21;;;;;;;6.18;1.73;;;27.50;80.50;;;;;;5054612;28;20045;-65
2023/08/20 12:38:47;;;;;;;5.70;1.63;;;27.50;80.40;;;;;;5018396;28;20049;-68
2023/08/20 12:41:14;;;;;;;4.88;1.60;;;27.80;80.90;;;;;;5053438;28;20836;-63
2023/08/20 12:43:40;;;;;;;4.90;1.60;;;27.60;81.00;;;;;;5065537;28;20437;-66